Time;durP1;ratioP1;P1;durP2;ratioP2;P2;SDS_P1;SDS_P2;PMS_P1;PMS_P2;Temp;Humidity;BMP_temperature;BMP_pressure;BME280_temperature;BME280_humidity;BME280_pressure;Samples;Min_cycle;Max_cycle;Signal;HPM_P1;HPM_P2
2021/10/02 00:36:16;;;;;;;17.00;13.23;;;;;;;29.76;70.19;100982.84;5030991;28;65483;-39
2021/10/02 00:44:43;;;;;;;11.68;9.30;;;;;;;29.70;70.08;100996.34;5027972;28;69279;-38
2021/10/02 00:47:18;;;;;;;9.90;8.95;;;;;;;29.69;69.64;101003.63;5040280;28;66481;-38
2021/10/02 00:49:51;;;;;;;18.33;9.90;;;;;;;29.67;70.15;101011.16;5047588;28;70216;-38
2021/10/02 00:52:23;;;;;;;9.88;9.05;;;;;;;29.62;69.11;101024.41;5044579;28;66894;-38
2021/10/02 00:54:54;;;;;;;7.80;7.30;;;;;;;29.37;69.24;100983.69;5042018;28;69460;-37
2021/10/02 00:57:25;;;;;;;7.32;6.80;;;;;;;29.61;69.50;101031.72;5042303;28;66344;-38
2021/10/02 00:59:56;;;;;;;10.98;9.85;;;;;;;29.65;69.10;101045.66;5043499;28;69091;-37
2021/10/02 01:02:32;;;;;;;9.70;8.90;;;;;;;29.57;69.55;101048.53;5041809;28;66293;-37
2021/10/02 01:05:47;;;;;;;11.07;9.93;;;;;;;29.15;69.30;101001.94;5037533;28;69982;-37
2021/10/02 01:08:40;;;;;;;11.98;10.82;;;;;;;29.51;70.13;101060.19;5043504;28;66198;-37
2021/10/02 01:11:17;;;;;;;11.65;10.73;;;;;;;29.59;69.67;101059.97;5055731;27;71930;-37
2021/10/02 01:14:13;;;;;;;12.00;11.18;;;;;;;29.25;69.93;101010.44;5039423;28;66678;-37
2021/10/02 01:16:49;;;;;;;12.82;11.65;;;;;;;29.62;69.82;101067.69;5037024;28;70935;-37
2021/10/02 01:19:43;;;;;;;12.88;11.70;;;;;;;29.35;69.75;101029.81;5043258;28;65351;-38
2021/10/02 01:22:17;;;;;;;13.55;12.32;;;;;;;29.74;70.07;101073.31;5043768;28;70463;-38
2021/10/02 01:25:24;;;;;;;15.40;12.48;;;;;;;29.71;70.16;101079.13;5043041;28;66465;-37
2021/10/02 01:28:04;;;;;;;13.57;12.07;;;;;;;29.76;69.54;101077.47;5041622;28;69882;-37
2021/10/02 01:33:43;;;;;;;13.40;12.25;;;;;;;29.87;69.74;101086.00;5043319;28;69641;-38
2021/10/02 01:47:52;;;;;;;15.75;10.45;;;;;;;30.03;69.59;101085.56;5046779;28;66501;-38
2021/10/02 01:50:30;;;;;;;15.25;10.98;;;;;;;29.92;69.87;101051.03;5047172;28;70354;-39
2021/10/02 01:53:03;;;;;;;19.20;10.32;;;;;;;30.20;69.61;101092.22;5048435;28;66268;-37
2021/10/02 01:55:35;;;;;;;14.43;9.90;;;;;;;30.24;69.18;101096.19;5055469;28;70371;-37
2021/10/02 01:58:11;;;;;;;11.75;10.05;;;;;;;30.26;69.47;101090.56;5043789;28;66399;-37
2021/10/02 02:00:47;;;;;;;14.48;10.35;;;;;;;29.99;69.87;101046.47;5044212;28;69938;-37
2021/10/02 02:03:22;;;;;;;12.43;10.32;;;;;;;30.11;69.58;101068.28;5048656;28;66326;-38
2021/10/02 02:05:55;;;;;;;11.68;10.35;;;;;;;30.00;70.04;101035.41;5043243;28;69265;-37
2021/10/02 02:08:28;;;;;;;15.88;10.48;;;;;;;30.36;69.55;101090.13;5044912;28;66290;-37
2021/10/02 02:11:20;;;;;;;12.52;10.80;;;;;;;30.37;70.18;101086.34;5036698;28;70451;-38
2021/10/02 02:13:52;;;;;;;;;;;;;;;30.11;70.75;101088.06;5047914;28;66445;-37
2021/10/02 02:16:23;;;;;;;11.32;10.30;;;;;;;30.37;70.26;101080.94;5044829;28;70627;-37
2021/10/02 02:18:56;;;;;;;10.40;9.60;;;;;;;30.35;69.60;101066.81;5040378;28;66564;-37
2021/10/02 02:21:28;;;;;;;10.82;9.65;;;;;;;30.47;70.18;101078.63;5046177;28;69862;-37
2021/10/02 02:24:00;;;;;;;10.35;9.57;;;;;;;30.48;69.81;101077.63;5039408;28;65649;-38
2021/10/02 02:26:31;;;;;;;10.48;9.68;;;;;;;30.50;70.17;101075.50;5035261;28;70038;-37
2021/10/02 02:29:03;;;;;;;12.63;9.80;;;;;;;30.00;69.98;100994.03;5047890;28;65212;-39
2021/10/02 02:31:34;;;;;;;;;;;;;;;30.26;71.17;101082.47;5041183;28;69259;-41
2021/10/02 02:34:04;;;;;;;10.55;9.52;;;;;;;30.46;71.17;101085.94;5044326;28;66890;-37
2021/10/02 02:36:35;;;;;;;16.30;10.18;;;;;;;30.58;70.86;101094.22;5046984;28;70429;-38
2021/10/02 02:39:07;;;;;;;11.83;10.13;;;;;;;30.56;70.85;101084.66;5043505;28;66157;-38
2021/10/02 02:41:38;;;;;;;13.00;10.77;;;;;;;30.60;70.50;101097.56;5023168;28;69887;-38
2021/10/02 02:44:11;;;;;;;12.32;10.45;;;;;;;30.62;71.12;101098.19;5041630;28;65713;-37
2021/10/02 02:46:43;;;;;;;14.70;11.43;;;;;;;30.58;72.09;101094.22;5045596;28;69266;-36
2021/10/02 02:49:33;;;;;;;13.82;12.52;;;;;;;30.55;72.36;101094.66;5046072;28;65807;-38
2021/10/02 02:52:14;;;;;;;13.88;12.55;;;;;;;30.33;72.72;101048.06;5037458;28;69586;-37
2021/10/02 02:55:14;;;;;;;15.25;13.77;;;;;;;30.56;72.95;101085.47;5040936;28;66410;-37
2021/10/02 02:57:49;;;;;;;20.30;14.23;;;;;;;30.60;71.96;101081.31;5044657;28;70600;-37
2021/10/02 03:00:23;;;;;;;15.90;14.27;;;;;;;30.32;72.56;101046.44;5048133;28;66187;-37
2021/10/02 03:03:12;;;;;;;15.55;13.88;;;;;;;30.34;72.36;101048.91;5029679;28;70358;-37
2021/10/02 03:05:43;;;;;;;18.70;14.88;;;;;;;30.63;72.29;101080.88;5040306;28;65760;-36
2021/10/02 03:08:19;;;;;;;16.65;15.30;;;;;;;30.61;72.91;101072.13;5035374;28;69162;-37
2021/10/02 03:10:59;;;;;;;16.48;14.93;;;;;;;30.63;72.72;101070.06;5043220;28;66069;-39
2021/10/02 03:13:34;;;;;;;20.15;16.75;;;;;;;30.38;72.36;101029.31;5034897;28;69255;-38
2021/10/02 03:16:12;;;;;;;19.30;16.88;;;;;;;30.64;73.04;101063.56;5039509;28;65782;-39
2021/10/02 03:18:47;;;;;;;17.95;16.13;;;;;;;30.62;72.21;101057.56;5043222;28;70490;-38
2021/10/02 03:21:22;;;;;;;25.50;17.00;;;;;;;30.58;73.01;101041.97;5045094;28;65641;-38
2021/10/02 03:23:54;;;;;;;17.27;15.57;;;;;;;30.62;73.01;101045.88;5038898;28;68845;-38
2021/10/02 03:26:25;;;;;;;;;;;;;;;30.28;75.44;101037.91;5043306;28;66335;-38
2021/10/02 03:28:58;;;;;;;17.95;16.08;;;;;;;30.34;75.44;101011.00;5038052;28;70324;-38
2021/10/02 03:31:31;;;;;;;18.73;16.73;;;;;;;30.42;75.35;101029.72;5039093;28;67120;-38
2021/10/02 03:34:04;;;;;;;18.35;16.45;;;;;;;30.30;75.89;101004.38;5028634;28;70165;-41
2021/10/02 03:36:35;;;;;;;19.23;17.30;;;;;;;30.30;75.90;101009.78;5028994;28;66120;-38
2021/10/02 03:39:06;;;;;;;18.93;17.00;;;;;;;30.34;75.12;101024.53;5028132;28;70991;-38
2021/10/02 03:41:37;;;;;;;19.87;17.53;;;;;;;30.28;75.97;101024.38;5025156;28;66210;-38
2021/10/02 03:44:11;;;;;;;19.95;18.05;;;;;;;30.25;76.57;101024.78;5042694;28;69895;-39
2021/10/02 03:46:42;;;;;;;20.17;18.20;;;;;;;30.20;75.95;101005.63;5038559;28;66730;-38
2021/10/02 03:49:13;;;;;;;19.20;17.08;;;;;;;30.13;76.11;100996.69;5040142;28;70190;-38
2021/10/02 03:51:46;;;;;;;18.13;16.45;;;;;;;30.05;75.73;100992.34;5043557;28;65136;-38
2021/10/02 03:54:18;;;;;;;16.80;15.23;;;;;;;30.07;76.46;101002.97;5041503;28;70984;-39
2021/10/02 03:56:49;;;;;;;21.25;14.85;;;;;;;29.98;76.25;100991.53;5023784;28;66916;-38
2021/10/02 03:59:21;;;;;;;14.70;13.57;;;;;;;30.02;76.69;101000.06;5041097;27;70129;-39
2021/10/02 04:01:52;;;;;;;16.90;14.75;;;;;;;30.04;76.58;101001.50;5005124;28;66699;-39
2021/10/02 04:04:23;;;;;;;17.70;13.43;;;;;;;30.01;76.27;100995.69;5040035;28;69550;-39
2021/10/02 04:06:55;;;;;;;18.55;13.90;;;;;;;29.92;75.75;100997.81;5036468;28;67158;-38
2021/10/02 04:09:26;;;;;;;14.75;13.45;;;;;;;29.86;75.80;100995.09;5038992;28;69489;-39
2021/10/02 04:11:58;;;;;;;15.43;14.10;;;;;;;29.77;76.03;100987.19;5037620;28;66533;-39
2021/10/02 04:14:29;;;;;;;14.00;12.67;;;;;;;29.68;75.59;100972.25;5036253;28;70034;-39
2021/10/02 04:17:01;;;;;;;14.18;12.38;;;;;;;29.73;76.09;100983.25;5045793;28;65997;-40
2021/10/02 04:19:32;;;;;;;;;;;;;;;29.46;76.69;100981.59;5038560;28;69921;-38
2021/10/02 04:22:04;;;;;;;12.02;11.13;;;;;;;29.70;76.13;100969.31;5039489;28;66705;-38
2021/10/02 04:24:36;;;;;;;11.68;10.57;;;;;;;29.73;75.62;100961.63;5020448;28;68885;-39
2021/10/02 04:27:08;;;;;;;10.52;9.70;;;;;;;29.75;75.53;100962.22;5036024;28;66123;-38
2021/10/02 04:29:39;;;;;;;10.10;9.23;;;;;;;29.70;75.66;100943.13;5023152;28;70281;-39
2021/10/02 04:32:12;;;;;;;8.70;8.07;;;;;;;29.81;75.24;100939.78;5037360;28;65904;-39
2021/10/02 04:34:43;;;;;;;7.80;7.30;;;;;;;29.83;74.68;100934.97;5032623;28;69609;-39
2021/10/02 04:37:14;;;;;;;7.15;6.75;;;;;;;29.84;75.10;100927.72;5038558;28;67383;-39
2021/10/02 04:39:45;;;;;;;7.70;7.20;;;;;;;29.81;74.92;100920.84;5038836;28;70462;-38
2021/10/02 04:42:17;;;;;;;10.00;8.15;;;;;;;29.91;75.14;100930.38;5023002;28;65875;-38
2021/10/02 04:44:48;;;;;;;8.07;7.30;;;;;;;29.94;75.31;100932.66;5039566;28;69799;-38
2021/10/02 04:47:20;;;;;;;7.32;6.72;;;;;;;29.99;75.11;100922.03;5039009;28;66091;-38
2021/10/02 04:49:53;;;;;;;12.98;6.68;;;;;;;30.00;75.67;100918.28;5047541;28;70315;-37
2021/10/02 04:52:25;;;;;;;9.27;6.38;;;;;;;30.05;75.16;100908.47;5028152;28;65836;-38
2021/10/02 04:54:57;;;;;;;6.43;5.95;;;;;;;29.90;75.64;100878.19;5040453;28;69339;-38
2021/10/02 04:57:28;;;;;;;6.55;5.75;;;;;;;30.08;75.65;100899.09;5043528;28;66439;-39
2021/10/02 05:00:00;;;;;;;5.93;5.60;;;;;;;30.13;75.03;100890.34;5041082;28;69942;-37
2021/10/02 05:02:31;;;;;;;;;;;;;;;29.95;76.25;100882.94;5014144;28;65472;-37
2021/10/02 05:05:03;;;;;;;5.95;5.60;;;;;;;30.19;75.02;100871.38;5044635;28;70420;-38
2021/10/02 05:07:35;;;;;;;6.30;5.90;;;;;;;30.21;75.07;100868.47;5051509;28;65540;-43
2021/10/02 05:10:08;;;;;;;5.95;5.50;;;;;;;30.24;75.26;100868.06;5027382;28;70115;-39
2021/10/02 05:12:40;;;;;;;5.50;5.10;;;;;;;30.27;75.03;100865.75;5050124;28;66165;-39
2021/10/02 05:15:11;;;;;;;;;;;;;;;30.08;75.85;100865.81;5002499;28;71045;-44
2021/10/02 05:17:43;;;;;;;6.07;5.28;;;;;;;30.28;75.03;100856.59;5054028;28;67873;-39
2021/10/02 05:20:14;;;;;;;5.32;4.78;;;;;;;30.26;74.77;100837.03;5034360;28;70300;-37
2021/10/02 05:22:45;;;;;;;8.20;5.53;;;;;;;30.34;74.56;100843.22;5046194;28;66221;-38
2021/10/02 05:25:17;;;;;;;6.38;4.35;;;;;;;30.37;74.56;100838.22;5050123;28;69862;-39
2021/10/02 05:27:50;;;;;;;5.80;4.97;;;;;;;30.44;73.96;100832.75;5029667;28;66117;-38
2021/10/02 05:30:21;;;;;;;;;;;;;;;30.21;74.23;100827.88;5045450;28;70293;-39
2021/10/02 05:32:54;;;;;;;4.68;4.28;;;;;;;30.51;73.57;100825.44;5049159;28;65830;-38
2021/10/02 05:35:26;;;;;;;4.40;4.10;;;;;;;30.55;74.00;100815.81;5041637;28;69309;-38
2021/10/02 05:37:59;;;;;;;4.32;3.85;;;;;;;30.63;73.74;100820.97;5015283;28;66125;-38
2021/10/02 05:40:33;;;;;;;5.10;4.70;;;;;;;30.68;73.54;100829.25;5036345;28;70883;-39
2021/10/02 05:43:06;;;;;;;4.47;4.07;;;;;;;30.71;73.18;100815.28;5029040;28;65612;-38
2021/10/02 05:45:37;;;;;;;3.92;3.63;;;;;;;30.75;72.82;100812.13;5046354;28;70525;-38
2021/10/02 05:48:08;;;;;;;4.05;3.75;;;;;;;30.77;72.86;100799.19;5039259;28;66949;-37
2021/10/02 05:50:41;;;;;;;4.35;3.95;;;;;;;30.78;72.80;100790.00;5026987;28;69845;-38
2021/10/02 05:53:12;;;;;;;3.35;3.15;;;;;;;30.74;72.58;100767.97;5045652;28;65404;-37
2021/10/02 05:55:54;;;;;;;4.20;3.05;;;;;;;30.85;71.81;100770.00;5038648;28;70001;-37
2021/10/02 05:58:25;;;;;;;3.58;3.28;;;;;;;30.88;72.10;100768.72;5036087;28;66641;-37
2021/10/02 06:00:56;;;;;;;3.88;3.58;;;;;;;30.92;71.94;100764.50;5039767;28;70644;-38
2021/10/02 06:03:28;;;;;;;3.73;3.43;;;;;;;30.93;72.06;100755.34;5041333;28;66207;-47
2021/10/02 06:06:00;;;;;;;5.22;3.58;;;;;;;30.99;71.26;100748.19;5048214;28;70507;-38
2021/10/02 06:08:31;;;;;;;3.33;3.03;;;;;;;31.00;70.99;100744.41;5043478;28;66652;-40
2021/10/02 06:11:02;;;;;;;3.63;3.00;;;;;;;30.88;69.86;100736.22;5040848;28;69919;-36
2021/10/02 06:13:33;;;;;;;4.15;3.75;;;;;;;31.02;70.41;100742.31;5050228;28;66024;-37
2021/10/02 06:16:04;;;;;;;4.40;3.17;;;;;;;31.02;70.10;100742.31;5044162;28;71051;-44
2021/10/02 06:18:35;;;;;;;3.37;3.03;;;;;;;30.87;70.17;100715.56;5044559;28;66601;-38
2021/10/02 06:21:11;;;;;;;3.40;3.17;;;;;;;30.91;69.79;100724.94;5048272;28;69400;-38
2021/10/02 06:23:43;;;;;;;2.85;2.42;;;;;;;31.03;69.32;100738.56;5046285;28;65727;-38
2021/10/02 06:26:14;;;;;;;4.43;2.72;;;;;;;31.06;70.11;100728.09;5046248;28;70197;-36
2021/10/02 06:28:45;;;;;;;2.72;2.50;;;;;;;31.03;69.66;100725.81;5045454;28;67184;-37
2021/10/02 06:31:16;;;;;;;2.63;2.42;;;;;;;31.06;69.82;100711.81;5040770;28;69384;-36
2021/10/02 06:33:48;;;;;;;2.75;2.40;;;;;;;31.07;69.34;100718.09;5045293;28;65612;-37
2021/10/02 06:36:20;;;;;;;2.63;2.42;;;;;;;31.09;68.87;100716.81;5045554;28;70328;-37
2021/10/02 06:38:59;;;;;;;4.45;2.08;;;;;;;31.07;68.91;100716.22;5045763;28;66472;-36
2021/10/02 06:41:30;;;;;;;4.60;2.28;;;;;;;31.06;69.16;100695.56;5028824;28;70003;-37
2021/10/02 06:44:02;;;;;;;2.40;2.20;;;;;;;31.06;69.29;100690.16;5038969;28;66413;-37
2021/10/02 06:46:33;;;;;;;5.03;1.90;;;;;;;31.16;69.20;100690.47;5040114;28;68741;-38
2021/10/02 06:49:04;;;;;;;2.95;2.08;;;;;;;31.13;68.51;100674.66;5036600;28;66105;-37
2021/10/02 06:51:35;;;;;;;2.88;2.10;;;;;;;31.20;68.37;100662.91;5033431;28;70355;-37
2021/10/02 06:54:06;;;;;;;2.58;2.03;;;;;;;31.17;68.50;100656.06;5046341;28;66175;-38
2021/10/02 06:56:37;;;;;;;4.13;1.70;;;;;;;31.07;67.75;100643.06;5042485;28;70077;-37
2021/10/02 06:59:08;;;;;;;5.03;2.20;;;;;;;31.22;68.50;100668.94;5015584;28;65616;-38
2021/10/02 07:01:42;;;;;;;3.22;2.20;;;;;;;31.15;68.28;100660.91;5037852;28;70233;-37
2021/10/02 07:04:14;;;;;;;2.25;2.05;;;;;;;31.20;68.32;100669.16;5038269;28;66466;-37
2021/10/02 07:06:58;;;;;;;2.47;1.98;;;;;;;31.20;68.22;100662.91;5035376;28;70261;-36
2021/10/02 07:09:30;;;;;;;1.88;1.67;;;;;;;31.29;68.26;100677.81;5045535;28;66258;-39
2021/10/02 07:12:04;;;;;;;2.10;1.90;;;;;;;31.29;68.42;100683.25;5037605;28;70066;-38
2021/10/02 07:14:35;;;;;;;;;;;;;;;31.03;68.28;100685.19;5041392;28;66396;-37
2021/10/02 07:17:08;;;;;;;2.22;2.00;;;;;;;31.29;68.44;100680.53;5035240;28;70230;-37
2021/10/02 07:19:40;;;;;;;7.72;2.17;;;;;;;31.32;68.21;100690.91;5037585;28;67551;-37
2021/10/02 07:22:11;;;;;;;3.03;1.90;;;;;;;31.32;68.35;100690.91;5036916;28;70049;-37
2021/10/02 07:24:42;;;;;;;3.05;2.00;;;;;;;31.29;68.43;100692.19;5037249;28;66239;-39
2021/10/02 07:27:14;;;;;;;11.63;2.13;;;;;;;31.31;68.18;100690.06;5013947;28;70675;-37
2021/10/02 07:29:45;;;;;;;2.70;2.15;;;;;;;31.24;68.22;100680.38;5041545;28;65314;-38
2021/10/02 07:32:17;;;;;;;4.45;2.10;;;;;;;31.32;68.86;100690.91;5036877;28;69089;-36
2021/10/02 07:34:48;;;;;;;8.05;2.00;;;;;;;31.30;68.99;100693.00;5038982;28;66173;-38
2021/10/02 07:37:21;;;;;;;2.83;2.20;;;;;;;31.28;68.76;100681.56;5028930;28;69669;-38
2021/10/02 07:39:52;;;;;;;13.73;2.25;;;;;;;31.29;68.63;100685.94;5047171;28;66695;-39
2021/10/02 07:42:25;;;;;;;;;;;;;;;31.01;70.00;100692.75;5026768;28;68239;-36
2021/10/02 07:44:59;;;;;;;;;;;;;;;30.96;69.99;100689.06;5063696;28;66814;-40
2021/10/02 07:47:33;;;;;;;4.80;2.55;;;;;;;31.29;68.13;100694.09;5038195;28;70071;-37
2021/10/02 07:50:12;;;;;;;5.60;2.67;;;;;;;31.27;67.71;100701.59;5047733;28;65452;-39
2021/10/02 07:52:44;;;;;;;11.43;3.13;;;;;;;31.26;67.88;100697.22;5022418;28;71573;-37
2021/10/02 07:55:17;;;;;;;5.78;2.22;;;;;;;31.25;67.95;100688.28;5040555;28;66143;-45
2021/10/02 07:57:48;;;;;;;5.03;2.90;;;;;;;31.34;67.22;100702.34;5037064;28;70324;-37
2021/10/02 08:00:21;;;;;;;8.07;2.90;;;;;;;31.34;67.45;100696.91;5050387;28;65441;-38
2021/10/02 08:02:54;;;;;;;5.22;2.53;;;;;;;31.35;66.22;100688.56;5041073;27;70280;-39
2021/10/02 08:05:25;;;;;;;2.97;2.67;;;;;;;31.34;66.56;100680.66;5042333;28;66690;-39
2021/10/02 08:07:58;;;;;;;11.05;3.20;;;;;;;31.37;66.84;100680.22;5047666;28;70451;-37
2021/10/02 08:10:29;;;;;;;4.65;2.83;;;;;;;31.37;66.51;100677.50;5046455;28;65234;-39
2021/10/02 08:13:02;;;;;;;3.58;3.28;;;;;;;31.37;66.35;100663.97;5009971;28;69205;-37
2021/10/02 08:15:33;;;;;;;6.80;3.78;;;;;;;31.35;66.40;100663.34;5042540;28;65441;-37
2021/10/02 08:18:06;;;;;;;4.63;3.92;;;;;;;31.23;66.38;100647.03;5024673;28;70716;-38
2021/10/02 08:20:39;;;;;;;5.03;4.65;;;;;;;31.36;66.29;100667.72;5041553;28;66448;-39
2021/10/02 08:23:13;;;;;;;8.18;4.57;;;;;;;31.33;65.81;100662.75;5015900;28;69936;-43
2021/10/02 08:25:50;;;;;;;5.57;4.57;;;;;;;31.29;65.44;100666.97;5031731;28;66108;-38
2021/10/02 08:28:21;;;;;;;7.03;5.72;;;;;;;31.24;66.15;100658.72;5046072;28;70058;-37
2021/10/02 08:30:53;;;;;;;;;;;;;;;30.92;66.32;100661.56;5044280;28;64930;-37
2021/10/02 08:33:24;;;;;;;5.13;4.63;;;;;;;31.12;65.80;100662.19;5040385;28;71184;-38
2021/10/02 08:35:55;;;;;;;5.53;3.45;;;;;;;31.09;65.45;100659.94;5046631;28;67137;-39
2021/10/02 08:38:26;;;;;;;4.68;4.18;;;;;;;31.10;65.77;100650.72;5057048;28;70835;-39
2021/10/02 08:40:58;;;;;;;4.50;3.60;;;;;;;31.02;65.50;100647.50;5044145;28;65426;-39
2021/10/02 08:43:33;;;;;;;3.60;3.30;;;;;;;31.11;65.09;100665.09;5048085;28;70588;-38
2021/10/02 08:46:07;;;;;;;4.00;3.25;;;;;;;31.05;65.93;100661.41;5037901;28;66919;-38
2021/10/02 08:48:40;;;;;;;6.35;3.10;;;;;;;30.87;65.81;100631.63;5028438;28;70571;-39
2021/10/02 08:51:20;;;;;;;6.25;3.42;;;;;;;31.01;66.25;100643.97;5050061;28;66480;-37
2021/10/02 08:53:54;;;;;;;;;;;;;;;30.87;67.68;100659.56;5050165;28;69162;-38
2021/10/02 08:56:27;;;;;;;8.57;4.60;;;;;;;31.08;66.80;100647.41;5022814;28;65435;-38
2021/10/02 08:59:00;;;;;;;6.22;4.25;;;;;;;31.08;66.48;100639.28;5039918;28;70041;-39
2021/10/02 09:01:31;;;;;;;10.60;4.78;;;;;;;31.18;66.93;100644.19;5043763;28;66375;-38
2021/10/02 09:04:02;;;;;;;6.73;5.20;;;;;;;31.16;67.30;100685.03;5052883;28;69925;-44
2021/10/02 09:06:34;;;;;;;14.73;4.22;;;;;;;31.23;67.92;100694.97;5016926;28;66550;-38
2021/10/02 09:09:07;;;;;;;13.65;5.32;;;;;;;31.13;67.99;100669.25;5046815;28;70577;-38
2021/10/02 09:11:39;;;;;;;7.32;4.93;;;;;;;31.32;68.20;100710.72;5050443;28;66533;-38
2021/10/02 09:14:11;;;;;;;10.13;2.55;;;;;;;31.21;67.47;100716.06;5047458;28;70096;-37
2021/10/02 09:16:42;;;;;;;4.65;2.70;;;;;;;31.19;67.17;100731.72;5044195;28;66279;-37
2021/10/02 09:19:14;;;;;;;8.43;2.50;;;;;;;31.15;67.62;100742.19;5041522;28;69921;-38
2021/10/02 09:22:01;;;;;;;4.57;2.45;;;;;;;31.13;68.17;100730.75;5014218;28;65314;-38
2021/10/02 09:24:44;;;;;;;13.18;3.42;;;;;;;30.93;68.01;100695.75;5029628;28;70031;-36
2021/10/02 09:27:27;;;;;;;2.63;2.42;;;;;;;31.09;69.03;100743.91;5048639;28;66306;-36
2021/10/02 09:30:16;;;;;;;18.63;3.83;;;;;;;31.14;68.92;100751.34;5040460;28;70357;-38
2021/10/02 09:32:47;;;;;;;7.05;4.10;;;;;;;31.23;68.74;100760.00;5040565;28;66257;-37
2021/10/02 09:35:24;;;;;;;5.15;3.78;;;;;;;31.15;68.97;100753.84;5041390;28;69552;-38
2021/10/02 09:37:55;;;;;;;8.73;3.22;;;;;;;31.16;69.16;100744.66;5037470;28;66634;-37
2021/10/02 09:40:28;;;;;;;2.42;2.22;;;;;;;31.08;69.01;100728.69;5044819;28;70306;-37
2021/10/02 09:43:03;;;;;;;2.10;1.88;;;;;;;31.08;68.47;100725.97;5040891;28;65846;-37
2021/10/02 09:45:38;;;;;;;1.95;1.85;;;;;;;31.02;69.06;100721.47;5041614;28;71132;-38
2021/10/02 09:48:14;;;;;;;5.68;2.08;;;;;;;31.16;68.54;100747.38;5045020;28;66000;-38
2021/10/02 09:50:47;;;;;;;3.30;1.80;;;;;;;31.01;69.02;100730.66;5043158;28;71015;-37
2021/10/02 09:53:20;;;;;;;6.00;1.95;;;;;;;30.90;70.40;100736.81;5043857;28;66249;-37
2021/10/02 09:55:53;;;;;;;5.28;1.80;;;;;;;31.05;69.96;100758.94;5039365;28;69925;-37
2021/10/02 09:58:33;;;;;;;3.50;1.70;;;;;;;31.06;70.64;100760.59;5030791;28;65001;-35
2021/10/02 10:01:05;;;;;;;4.30;1.70;;;;;;;30.96;70.48;100748.66;5043873;28;69880;-37
2021/10/02 10:03:45;;;;;;;6.30;1.60;;;;;;;30.98;70.58;100769.03;5049199;28;66338;-37
2021/10/02 10:06:24;;;;;;;1.85;1.60;;;;;;;30.98;70.07;100769.03;5049306;28;69630;-37
2021/10/02 10:09:05;;;;;;;5.75;1.90;;;;;;;30.93;70.13;100782.41;5044426;28;66118;-38
2021/10/02 10:11:48;;;;;;;7.60;1.67;;;;;;;30.28;69.89;100694.25;5045546;28;68980;-37
2021/10/02 10:14:19;;;;;;;4.53;1.30;;;;;;;30.84;70.18;100797.28;5044965;28;66012;-37
2021/10/02 10:16:54;;;;;;;3.97;1.20;;;;;;;30.72;69.55;100776.31;5039546;28;70393;-37
2021/10/02 10:19:31;;;;;;;3.38;1.80;;;;;;;30.82;70.23;100797.50;5046566;28;66427;-35
2021/10/02 10:22:10;;;;;;;3.13;1.73;;;;;;;30.78;69.94;100800.84;5040807;28;69266;-36
2021/10/02 10:24:53;;;;;;;2.85;1.75;;;;;;;30.65;70.20;100797.22;5043277;28;66039;-37
2021/10/02 10:27:36;;;;;;;7.40;2.17;;;;;;;30.77;69.77;100821.69;5046716;28;70401;-37
2021/10/02 10:30:17;;;;;;;2.80;1.75;;;;;;;30.67;69.90;100814.06;5043089;28;66313;-35
2021/10/02 10:32:59;;;;;;;2.47;1.63;;;;;;;30.62;70.00;100811.19;5047410;28;69431;-36
2021/10/02 10:35:41;;;;;;;3.58;2.00;;;;;;;30.47;70.12;100791.72;5049453;28;66412;-37
2021/10/02 10:38:17;;;;;;;2.08;1.75;;;;;;;30.75;69.74;100836.50;5048146;28;70261;-37
2021/10/02 10:40:50;;;;;;;3.42;1.60;;;;;;;30.75;69.95;100833.78;5048244;28;65614;-37
2021/10/02 10:43:22;;;;;;;1.63;1.50;;;;;;;30.75;69.82;100844.63;5045050;28;69444;-36
2021/10/02 10:45:54;;;;;;;2.15;1.65;;;;;;;30.73;69.40;100855.69;5049134;28;66461;-36
2021/10/02 10:48:25;;;;;;;;;;;;;;;30.42;69.89;100840.25;5043936;28;69927;-37
2021/10/02 10:51:02;;;;;;;1.63;1.08;;;;;;;30.36;69.14;100792.44;5051485;28;65109;-37
2021/10/02 10:53:48;;;;;;;1.20;0.80;;;;;;;30.61;69.82;100855.53;5045131;28;70341;-37
2021/10/02 10:56:40;;;;;;;1.17;1.05;;;;;;;30.52;69.17;100835.22;5040641;28;66179;-37
2021/10/02 10:59:18;;;;;;;1.20;1.10;;;;;;;30.61;69.38;100854.72;5046475;28;69914;-37
2021/10/02 11:01:50;;;;;;;1.30;0.90;;;;;;;30.61;69.45;100850.13;5040054;28;65478;-37
2021/10/02 11:04:36;;;;;;;0.90;0.85;;;;;;;30.46;69.55;100852.34;5044811;28;70270;-38
2021/10/02 11:07:13;;;;;;;1.23;0.80;;;;;;;30.57;69.26;100859.75;5038936;28;66111;-36
2021/10/02 11:09:45;;;;;;;2.92;1.02;;;;;;;30.56;69.44;100863.47;5039238;28;70067;-37
2021/10/02 11:12:17;;;;;;;1.10;0.82;;;;;;;30.58;69.55;100866.81;5039295;28;65419;-37
2021/10/02 11:14:51;;;;;;;0.80;0.80;;;;;;;30.52;69.48;100851.44;5040501;28;70189;-37
2021/10/02 11:17:31;;;;;;;0.90;0.88;;;;;;;30.52;69.41;100851.44;5046719;28;65757;-37
2021/10/02 11:20:17;;;;;;;1.20;1.10;;;;;;;30.45;69.52;100850.66;5038638;27;70574;-37
2021/10/02 11:23:24;;;;;;;1.40;1.30;;;;;;;30.42;69.08;100856.50;5046143;28;66624;-37
2021/10/02 11:26:26;;;;;;;0.95;0.90;;;;;;;30.38;69.51;100858.00;5035264;28;70196;-37
2021/10/02 11:29:03;;;;;;;1.20;1.10;;;;;;;30.44;69.57;100854.41;5038926;28;66455;-37
2021/10/02 11:31:35;;;;;;;1.25;1.15;;;;;;;30.44;69.44;100855.25;5020820;28;71199;-37
2021/10/02 11:34:16;;;;;;;1.52;1.35;;;;;;;30.07;69.47;100802.78;5037909;28;66652;-37
2021/10/02 11:36:54;;;;;;;1.60;1.50;;;;;;;30.16;69.11;100820.41;5047174;28;69918;-37
2021/10/02 11:39:30;;;;;;;1.60;1.35;;;;;;;30.30;69.65;100853.66;5034902;28;66387;-37
2021/10/02 11:42:12;;;;;;;1.70;1.08;;;;;;;30.38;69.71;100871.53;5046736;28;69487;-35
2021/10/02 11:44:48;;;;;;;1.38;1.25;;;;;;;30.36;69.52;100865.50;5039930;28;65507;-37
2021/10/02 11:47:37;;;;;;;1.80;1.70;;;;;;;30.26;70.09;100858.69;5050711;28;69625;-37
2021/10/02 11:50:08;;;;;;;1.48;1.38;;;;;;;30.33;69.82;100879.47;5043951;28;66290;-37
2021/10/02 11:53:02;;;;;;;1.50;1.40;;;;;;;30.21;69.60;100888.22;5044850;28;69556;-44
2021/10/02 11:55:35;;;;;;;1.60;1.50;;;;;;;30.30;70.02;100896.13;5050511;28;66244;-37
2021/10/02 11:58:10;;;;;;;1.60;1.50;;;;;;;30.29;69.65;100906.13;5048480;28;70745;-36
2021/10/02 12:01:00;;;;;;;1.92;1.40;;;;;;;30.19;69.56;100909.25;5045080;28;65428;-36
2021/10/02 12:03:35;;;;;;;1.55;1.45;;;;;;;30.24;70.04;100912.19;5052810;28;70156;-36
2021/10/02 12:06:06;;;;;;;4.15;1.27;;;;;;;30.23;70.30;100918.66;5049052;28;66657;-35
2021/10/02 12:08:41;;;;;;;2.80;1.30;;;;;;;30.16;70.38;100920.50;5046002;28;71086;-35
2021/10/02 12:11:19;;;;;;;4.30;1.40;;;;;;;30.20;70.26;100923.59;5051621;28;65768;-35
2021/10/02 12:13:58;;;;;;;7.18;2.60;;;;;;;30.14;72.53;100928.00;5035207;28;70219;-35
2021/10/02 12:16:33;;;;;;;2.90;2.70;;;;;;;30.03;73.09;100923.25;5045246;28;65857;-36
2021/10/02 12:19:11;;;;;;;3.58;3.03;;;;;;;29.95;73.90;100915.38;5053390;28;71238;-37
2021/10/02 12:21:51;;;;;;;3.47;2.90;;;;;;;29.56;74.41;100879.28;5047376;28;66759;-35
2021/10/02 12:24:23;;;;;;;6.15;3.08;;;;;;;29.80;75.19;100927.28;5039837;28;69089;-35
2021/10/02 12:27:03;;;;;;;8.70;3.45;;;;;;;29.80;76.11;100946.22;5046103;28;66456;-36
2021/10/02 12:29:38;;;;;;;7.43;3.75;;;;;;;29.79;76.66;100958.09;5046865;28;69919;-36
2021/10/02 12:32:20;;;;;;;3.58;3.22;;;;;;;29.71;76.78;100957.47;5052760;28;65698;-36
2021/10/02 12:35:00;;;;;;;4.22;3.30;;;;;;;29.61;76.45;100952.44;5043037;28;70214;-36
2021/10/02 12:37:34;;;;;;;3.40;3.05;;;;;;;29.34;77.04;100913.84;5038749;28;65760;-36
2021/10/02 12:40:11;;;;;;;4.00;3.63;;;;;;;29.29;77.23;100911.75;5045069;28;70165;-36
2021/10/02 12:42:53;;;;;;;3.80;3.50;;;;;;;29.58;76.65;100963.69;5043188;28;66672;-35
2021/10/02 12:45:40;;;;;;;3.60;3.30;;;;;;;29.28;77.56;100920.91;5050169;28;70161;-37
2021/10/02 12:48:13;;;;;;;3.70;3.50;;;;;;;29.49;77.01;100976.59;5050898;28;65506;-37
2021/10/02 12:50:46;;;;;;;3.50;3.30;;;;;;;29.11;77.19;100914.25;5048489;28;70650;-37
2021/10/02 12:53:21;;;;;;;4.60;4.18;;;;;;;29.46;78.42;100984.28;5040437;28;66782;-37
2021/10/02 12:55:53;;;;;;;4.38;3.90;;;;;;;29.46;79.10;100987.81;5041884;28;70262;-37